Time;durP1;ratioP1;P1;durP2;ratioP2;P2;SDS_P1;SDS_P2;PMS_P1;PMS_P2;Temp;Humidity;BMP_temperature;BMP_pressure;BME280_temperature;BME280_humidity;BME280_pressure;Samples;Min_cycle;Max_cycle;Signal;HPM_P1;HPM_P2
2023/12/14 00:00:20;;;;;;;79.50;41.87;;;;;;;7.71;100.00;99224.70;124868;1102;102326;-79
2023/12/14 00:03:11;;;;;;;76.13;40.97;;;;;;;7.74;100.00;99234.32;124692;1102;102494;-79
2023/12/14 00:05:43;;;;;;;75.90;40.37;;;;;;;7.73;100.00;99236.06;124692;1102;101992;-79
2023/12/14 00:08:14;;;;;;;77.90;40.83;;;;;;;7.76;100.00;99243.10;124774;1102;104245;-79
2023/12/14 00:10:46;;;;;;;82.13;40.60;;;;;;;7.77;100.00;99243.98;124729;1102;102676;-79
2023/12/14 00:13:17;;;;;;;81.90;40.10;;;;;;;7.79;100.00;99242.28;124735;1101;104278;-78
2023/12/14 00:15:50;;;;;;;77.10;39.50;;;;;;;7.80;100.00;99238.84;124797;1102;104207;-78
2023/12/14 00:18:21;;;;;;;76.13;39.13;;;;;;;7.83;100.00;99241.53;124819;1102;104207;-79
2023/12/14 00:20:53;;;;;;;76.07;38.43;;;;;;;7.84;100.00;99238.09;124817;1102;102068;-79
2023/12/14 00:23:25;;;;;;;76.90;39.40;;;;;;;7.85;100.00;99232.00;124759;1102;104314;-79
2023/12/14 00:25:57;;;;;;;71.97;36.03;;;;;;;7.85;100.00;99222.45;124762;1102;104271;-79
2023/12/14 00:28:28;;;;;;;77.57;40.07;;;;;;;7.85;100.00;99221.55;124582;1102;104189;-79
2023/12/14 00:31:00;;;;;;;76.43;39.00;;;;;;;7.84;100.00;99223.29;124800;1102;104284;-78
2023/12/14 00:33:31;;;;;;;74.03;38.37;;;;;;;7.86;100.00;99215.49;124812;1102;102038;-79
2023/12/14 00:36:03;;;;;;;68.87;36.07;;;;;;;7.89;100.00;99215.58;124606;1102;102894;-78
2023/12/14 00:38:34;;;;;;;75.33;38.57;;;;;;;7.90;100.00;99194.72;124561;1102;102351;-78
2023/12/14 00:41:06;;;;;;;70.40;36.80;;;;;;;7.91;100.00;99185.14;124748;1102;104169;-79
2023/12/14 00:43:38;;;;;;;74.47;38.93;;;;;;;7.91;100.00;99190.37;124645;1102;102594;-78
2023/12/14 00:46:11;;;;;;;72.13;37.50;;;;;;;7.90;100.00;99194.72;124764;1102;102058;-78
2023/12/14 00:48:42;;;;;;;73.55;38.60;;;;;;;7.91;100.00;99175.56;124704;1102;104277;-79
2023/12/14 00:51:14;;;;;;;71.10;38.23;;;;;;;7.90;100.00;99176.44;124601;1102;104274;-79
2023/12/14 00:53:45;;;;;;;70.77;37.67;;;;;;;7.91;100.00;99179.92;124773;1102;102000;-78
2023/12/14 00:56:17;;;;;;;64.33;36.07;;;;;;;7.91;100.00;99179.92;124708;1102;104169;-79
2023/12/14 00:58:48;;;;;;;65.17;35.20;;;;;;;7.91;100.00;99174.69;124715;1102;104175;-78
2023/12/14 01:01:20;;;;;;;69.63;37.03;;;;;;;7.90;100.00;99163.37;124574;1102;104191;-78
2023/12/14 01:03:51;;;;;;;64.17;35.47;;;;;;;7.91;100.00;99165.12;124760;1102;102082;-78
2023/12/14 01:06:23;;;;;;;73.40;37.17;;;;;;;7.90;100.00;99163.37;124658;1102;102747;-78
2023/12/14 01:08:54;;;;;;;68.03;35.73;;;;;;;7.90;100.00;99160.77;124731;1102;104175;-78
2023/12/14 01:11:26;;;;;;;64.67;35.13;;;;;;;7.89;100.00;99158.98;124795;1102;102755;-78
2023/12/14 01:13:57;;;;;;;65.47;35.30;;;;;;;7.90;100.00;99149.45;124566;1102;104188;-79
2023/12/14 01:16:30;;;;;;;70.17;35.53;;;;;;;7.90;100.00;99142.48;124733;1102;104201;-79
2023/12/14 01:19:01;;;;;;;69.53;35.43;;;;;;;7.91;100.00;99139.00;124679;1102;110302;-78
2023/12/14 01:21:32;;;;;;;59.43;34.20;;;;;;;7.91;100.00;99148.58;124731;1102;102329;-78
2023/12/14 01:24:04;;;;;;;70.03;36.30;;;;;;;7.91;100.00;99146.84;124740;1102;104229;-78
2023/12/14 01:26:36;;;;;;;66.93;36.93;;;;;;;7.92;100.00;99147.74;124712;1102;104220;-79
2023/12/14 01:29:07;;;;;;;66.30;35.87;;;;;;;7.92;100.00;99146.00;124788;1102;104201;-78
2023/12/14 01:31:39;;;;;;;63.40;33.87;;;;;;;7.92;100.00;99151.23;124576;1102;104274;-79
2023/12/14 01:34:12;;;;;;;64.60;34.30;;;;;;;7.93;100.00;99146.87;124792;1102;102032;-78
2023/12/14 01:36:44;;;;;;;68.73;35.63;;;;;;;7.92;100.00;99145.13;124775;1102;101949;-78
2023/12/14 01:39:15;;;;;;;66.97;36.27;;;;;;;7.92;100.00;99146.00;124632;1102;101832;-79
2023/12/14 01:41:46;;;;;;;66.63;34.30;;;;;;;7.91;100.00;99133.78;124838;1102;101881;-78
2023/12/14 01:44:18;;;;;;;65.70;34.43;;;;;;;7.92;100.00;99132.94;124802;1102;104173;-79
2023/12/14 01:46:49;;;;;;;59.33;32.40;;;;;;;7.92;100.00;99124.23;124748;1102;101817;-78
2023/12/14 01:49:21;;;;;;;59.27;33.07;;;;;;;7.94;100.00;99132.11;124779;1102;102009;-79
2023/12/14 01:51:52;;;;;;;63.37;33.03;;;;;;;7.96;100.00;99119.95;124823;1102;104294;-78
2023/12/14 01:54:24;;;;;;;60.77;32.60;;;;;;;7.96;100.00;99120.83;124712;1102;104214;-79
2023/12/14 01:56:55;;;;;;;62.93;31.77;;;;;;;7.96;100.00;99120.83;124696;1102;104263;-78
2023/12/14 01:59:26;;;;;;;58.70;30.57;;;;;;;7.97;100.00;99126.96;124644;1102;102127;-78
2023/12/14 02:02:01;;;;;;;63.60;31.23;;;;;;;7.98;100.00;99128.70;124752;1102;104169;-78
2023/12/14 02:04:32;;;;;;;52.73;28.23;;;;;;;7.98;100.00;99128.70;124661;1102;101845;-78
2023/12/14 02:07:04;;;;;;;61.30;31.30;;;;;;;7.98;100.00;99120.87;124703;1102;102061;-78
2023/12/14 02:09:36;;;;;;;56.70;30.40;;;;;;;7.99;100.00;99120.03;124691;1102;104254;-79
2023/12/14 02:12:08;;;;;;;56.20;29.43;;;;;;;7.99;100.00;99114.81;124526;1102;104268;-78
2023/12/14 02:14:40;;;;;;;56.27;28.40;;;;;;;7.99;100.00;99110.45;124706;1102;104256;-78
2023/12/14 02:17:11;;;;;;;57.87;29.90;;;;;;;8.00;100.00;99108.75;124720;1102;104214;-78
2023/12/14 02:19:44;;;;;;;52.77;28.37;;;;;;;8.01;100.00;99102.66;124585;1102;101842;-78
2023/12/14 02:22:17;;;;;;;54.27;28.27;;;;;;;8.02;100.00;99101.81;124614;1102;104300;-79
2023/12/14 02:24:48;;;;;;;57.40;30.20;;;;;;;8.03;100.00;99090.53;124604;1102;101883;-78
2023/12/14 02:27:20;;;;;;;53.87;28.90;;;;;;;8.03;100.00;99088.80;124690;1102;104332;-78
2023/12/14 02:29:54;;;;;;;53.93;28.53;;;;;;;8.03;100.00;99082.70;124544;1102;104319;-78
2023/12/14 02:32:26;;;;;;;54.20;28.80;;;;;;;8.04;100.00;99081.83;124591;1102;104263;-78
2023/12/14 02:34:57;;;;;;;54.50;27.53;;;;;;;8.03;100.00;99085.31;124617;1102;104395;-77
2023/12/14 02:37:28;;;;;;;52.40;28.67;;;;;;;8.03;100.00;99091.41;124557;1102;104178;-77
2023/12/14 02:40:00;;;;;;;50.23;27.07;;;;;;;8.03;100.00;99093.14;124397;1102;104236;-77
2023/12/14 02:42:32;;;;;;;54.27;27.60;;;;;;;8.02;100.00;99084.41;124508;1102;103356;-77
2023/12/14 02:45:03;;;;;;;51.03;28.80;;;;;;;8.01;100.00;99074.83;124528;1102;104278;-78
2023/12/14 02:47:35;;;;;;;54.40;28.37;;;;;;;8.01;100.00;99071.31;124646;1102;104185;-78
2023/12/14 02:50:08;;;;;;;50.37;27.80;;;;;;;7.99;100.00;99067.79;124668;1102;104226;-78
2023/12/14 02:52:40;;;;;;;52.30;28.10;;;;;;;7.98;100.00;99074.75;124482;1102;104185;-79
2023/12/14 02:55:11;;;;;;;50.80;27.03;;;;;;;7.97;100.00;99070.36;124510;1102;101947;-78
2023/12/14 02:57:42;;;;;;;49.30;26.60;;;;;;;7.95;100.00;99066.84;124525;1102;104254;-78
2023/12/14 03:00:16;;;;;;;49.50;25.87;;;;;;;7.95;100.00;99065.94;124655;1102;101880;-78
2023/12/14 03:02:47;;;;;;;43.40;24.63;;;;;;;7.93;100.00;99058.06;124768;1102;102060;-79
2023/12/14 03:05:18;;;;;;;48.87;25.80;;;;;;;7.92;100.00;99048.48;124754;1102;101913;-78
2023/12/14 03:07:50;;;;;;;48.50;25.97;;;;;;;7.90;100.00;99030.17;124771;1102;104165;-78
2023/12/14 03:10:21;;;;;;;48.47;25.30;;;;;;;7.90;100.00;99029.30;124665;1102;102456;-78
2023/12/14 03:12:53;;;;;;;47.35;24.30;;;;;;;7.91;100.00;99044.10;124411;1102;101941;-78
2023/12/14 03:15:24;;;;;;;48.47;24.43;;;;;;;7.90;100.00;99050.20;124630;1102;101895;-78
2023/12/14 03:17:56;;;;;;;48.60;25.57;;;;;;;7.91;100.00;99050.20;124643;1102;101949;-78
2023/12/14 03:20:27;;;;;;;51.10;26.17;;;;;;;7.92;100.00;99040.66;124596;1102;103782;-77
2023/12/14 03:22:59;;;;;;;49.70;26.60;;;;;;;7.90;100.00;99029.30;124614;1102;101884;-78
2023/12/14 03:25:30;;;;;;;55.83;28.03;;;;;;;7.87;100.00;99032.72;124699;1102;102193;-77
2023/12/14 03:28:01;;;;;;;51.33;27.27;;;;;;;7.86;100.00;99035.29;124788;1102;104185;-78
2023/12/14 03:30:36;;;;;;;52.70;28.00;;;;;;;7.85;100.00;99026.58;124695;1102;104315;-78
2023/12/14 03:33:07;;;;;;;50.90;28.43;;;;;;;7.84;100.00;99027.42;124747;1102;104361;-78
2023/12/14 03:35:41;;;;;;;56.47;27.83;;;;;;;7.84;100.00;99037.87;124784;1102;104300;-78
2023/12/14 03:38:14;;;;;;;52.30;27.85;;;;;;;7.84;100.00;99031.77;124707;1102;101949;-78
2023/12/14 03:40:46;;;;;;;51.50;27.63;;;;;;;7.81;100.00;99045.63;124725;1102;104086;-78
2023/12/14 03:43:17;;;;;;;51.60;27.30;;;;;;;7.79;100.00;99039.50;124741;1102;102557;-79
2023/12/14 03:45:48;;;;;;;51.33;28.63;;;;;;;7.79;100.00;99029.05;124769;1102;104086;-78
2023/12/14 03:48:20;;;;;;;52.60;26.93;;;;;;;7.79;100.00;99033.37;124786;1102;102211;-79
2023/12/14 03:50:51;;;;;;;48.97;27.10;;;;;;;7.79;100.00;99034.27;124664;1102;101833;-78
2023/12/14 03:53:23;;;;;;;51.53;27.60;;;;;;;7.79;100.00;99028.14;124825;1102;101990;-78
2023/12/14 03:55:55;;;;;;;50.90;26.63;;;;;;;7.78;100.00;99026.41;124830;1102;104294;-78
2023/12/14 03:58:27;;;;;;;48.17;25.20;;;;;;;7.77;100.00;99020.28;124641;1102;101921;-78
2023/12/14 04:00:58;;;;;;;46.77;25.33;;;;;;;7.78;100.00;99029.02;124734;1102;104211;-78
2023/12/14 04:03:30;;;;;;;48.07;24.90;;;;;;;7.78;100.00;99027.27;124523;1102;102106;-79
2023/12/14 04:06:01;;;;;;;49.47;27.37;;;;;;;7.79;100.00;99026.44;124799;1102;102067;-79
2023/12/14 04:08:32;;;;;;;50.57;26.10;;;;;;;7.79;100.00;99022.92;124815;1102;102089;-79
2023/12/14 04:11:04;;;;;;;48.93;26.10;;;;;;;7.78;100.00;99023.80;124815;1101;104411;-79
2023/12/14 04:13:36;;;;;;;47.93;25.33;;;;;;;7.78;100.00;99011.61;124909;1102;104166;-79
2023/12/14 04:16:09;;;;;;;47.83;24.10;;;;;;;7.79;100.00;99013.38;124705;1102;103647;-79
2023/12/14 04:18:40;;;;;;;47.57;25.73;;;;;;;7.81;100.00;99016.03;124757;1102;104092;-79
2023/12/14 04:21:12;;;;;;;51.80;25.80;;;;;;;7.81;100.00;99027.34;124725;1102;102564;-78
2023/12/14 04:23:45;;;;;;;48.07;24.63;;;;;;;7.82;100.00;99036.95;124610;1102;102095;-79
2023/12/14 04:26:17;;;;;;;48.27;26.17;;;;;;;7.82;100.00;99020.38;124661;1102;104406;-79
2023/12/14 04:28:48;;;;;;;45.45;25.30;;;;;;;7.82;100.00;99023.90;124667;1102;102034;-78
2023/12/14 04:31:19;;;;;;;45.33;23.47;;;;;;;7.83;100.00;99022.16;124659;1102;105470;-79
2023/12/14 04:33:51;;;;;;;49.70;24.60;;;;;;;7.83;100.00;99019.55;124649;1102;102268;-79
2023/12/14 04:36:23;;;;;;;45.27;24.27;;;;;;;7.84;100.00;99027.42;124763;1102;104338;-79
2023/12/14 04:38:55;;;;;;;41.70;22.47;;;;;;;7.86;100.00;99036.16;124693;1102;104239;-79
2023/12/14 04:41:26;;;;;;;46.90;24.03;;;;;;;7.87;100.00;99037.06;124645;1102;104323;-79
2023/12/14 04:43:58;;;;;;;41.37;21.40;;;;;;;7.88;100.00;99044.03;124654;1102;101910;-79
2023/12/14 04:46:29;;;;;;;40.90;21.13;;;;;;;7.89;100.00;99040.58;124740;1102;104332;-79
2023/12/14 04:49:01;;;;;;;44.13;21.30;;;;;;;7.91;100.00;99031.91;124552;1102;102230;-79
2023/12/14 04:51:33;;;;;;;42.80;23.17;;;;;;;7.95;100.00;99030.28;124582;1102;104179;-79
2023/12/14 04:54:04;;;;;;;42.63;21.93;;;;;;;7.97;100.00;99027.70;124611;1102;104172;-79
2023/12/14 04:56:36;;;;;;;40.83;21.17;;;;;;;7.99;100.00;99023.38;124648;1102;102784;-78
2023/12/14 04:59:07;;;;;;;40.10;21.30;;;;;;;8.02;100.00;99020.84;124706;1102;101954;-78
2023/12/14 05:01:39;;;;;;;40.13;21.50;;;;;;;8.02;100.00;99031.28;124663;1102;104255;-78
2023/12/14 05:04:10;;;;;;;37.70;20.80;;;;;;;8.01;100.00;99040.86;124581;1102;102025;-79
2023/12/14 05:06:42;;;;;;;38.57;19.83;;;;;;;8.03;100.00;99057.44;124671;1102;101948;-79
2023/12/14 05:09:16;;;;;;;36.53;19.32;;;;;;;8.04;100.00;99055.70;124804;1102;101899;-79
2023/12/14 05:11:47;;;;;;;37.33;20.07;;;;;;;8.05;100.00;99049.64;124752;1102;104287;-79
2023/12/14 05:14:19;;;;;;;39.63;21.10;;;;;;;8.06;100.00;99054.91;124662;1102;101917;-79
2023/12/14 05:16:50;;;;;;;35.77;19.60;;;;;;;8.06;100.00;99056.64;124525;1102;104227;-77
2023/12/14 05:19:21;;;;;;;39.23;19.57;;;;;;;8.07;100.00;99050.55;124519;1102;102051;-76
2023/12/14 05:21:54;;;;;;;33.93;19.17;;;;;;;8.09;100.00;99054.10;124577;1102;104188;-77
2023/12/14 05:24:25;;;;;;;37.60;19.87;;;;;;;8.08;100.00;99041.88;124482;1102;102447;-75
2023/12/14 05:26:57;;;;;;;39.10;19.90;;;;;;;8.08;100.00;99040.13;124428;1102;104245;-76
2023/12/14 05:29:28;;;;;;;41.10;20.37;;;;;;;8.07;100.00;99034.88;124457;1102;104281;-76
2023/12/14 05:32:00;;;;;;;38.47;20.07;;;;;;;8.07;100.00;99042.71;124558;1102;104305;-76
2023/12/14 05:34:31;;;;;;;39.03;19.17;;;;;;;8.06;100.00;99044.45;124513;1102;104676;-76
2023/12/14 05:37:03;;;;;;;39.00;19.13;;;;;;;8.04;100.00;99020.03;124559;1102;101917;-76
2023/12/14 05:39:34;;;;;;;34.63;18.67;;;;;;;8.05;100.00;99026.13;124443;1103;104197;-76
2023/12/14 05:42:06;;;;;;;44.33;20.87;;;;;;;8.04;100.00;99020.03;124516;1102;104214;-76
2023/12/14 05:44:37;;;;;;;37.50;19.33;;;;;;;8.03;100.00;99014.78;124587;1102;102697;-76
2023/12/14 05:47:10;;;;;;;40.80;20.40;;;;;;;8.03;100.00;99013.03;124760;1102;102096;-78
2023/12/14 05:49:45;;;;;;;39.97;20.47;;;;;;;8.03;100.00;98996.48;124842;1102;102250;-77
2023/12/14 05:52:16;;;;;;;38.77;21.27;;;;;;;8.03;100.00;99004.33;124786;1102;102463;-78
2023/12/14 05:54:48;;;;;;;37.30;19.50;;;;;;;8.01;100.00;99006.00;124760;1102;101849;-78
2023/12/14 05:57:20;;;;;;;37.77;20.00;;;;;;;8.00;100.00;99007.74;124846;1102;104179;-78
2023/12/14 05:59:53;;;;;;;36.80;19.43;;;;;;;8.03;100.00;99015.65;124934;1102;101873;-82
2023/12/14 06:02:36;;;;;;;38.03;20.03;;;;;;;8.07;100.00;99014.88;124882;1102;102283;-80
2023/12/14 06:05:09;;;;;;;37.70;20.55;;;;;;;8.09;100.00;99028.84;124877;1102;104329;-77
2023/12/14 06:07:41;;;;;;;41.13;21.13;;;;;;;8.13;100.00;99031.53;124694;1102;102442;-77
2023/12/14 06:10:12;;;;;;;40.77;20.47;;;;;;;8.15;100.00;99033.33;124476;1102;104708;-79
2023/12/14 06:12:44;;;;;;;37.87;20.33;;;;;;;8.18;100.00;99033.41;124684;1102;104204;-82
2023/12/14 06:15:18;;;;;;;37.23;20.50;;;;;;;8.20;100.00;99034.30;124837;1102;102324;-80
2023/12/14 06:17:53;;;;;;;37.93;18.93;;;;;;;8.22;100.00;99031.73;125870;1098;101795;-78
2023/12/14 06:20:26;;;;;;;36.27;19.27;;;;;;;8.25;100.00;99034.41;124840;1099;104315;-80
2023/12/14 06:22:59;;;;;;;37.17;20.03;;;;;;;8.25;100.00;99040.51;125234;1099;102102;-79
2023/12/14 06:25:31;;;;;;;36.17;19.90;;;;;;;8.27;100.00;99043.16;125185;1099;102991;-79
2023/12/14 06:28:03;;;;;;;36.07;20.20;;;;;;;8.31;100.00;99052.84;125268;1099;102342;-80
2023/12/14 06:30:35;;;;;;;36.90;19.37;;;;;;;8.33;100.00;99052.87;124942;1098;104245;-80
2023/12/14 06:33:09;;;;;;;36.30;19.80;;;;;;;8.37;100.00;99046.87;126239;1098;101817;-81
2023/12/14 06:35:41;;;;;;;36.03;20.73;;;;;;;8.42;100.00;99047.84;125928;1098;102012;-79
2023/12/14 06:38:39;;;;;;;34.00;18.63;;;;;;;8.44;100.00;99054.88;125817;1099;101811;-84
2023/12/14 06:41:25;;;;;;;34.23;17.40;;;;;;;8.47;100.00;99059.30;126306;1098;104173;-81
2023/12/14 06:44:02;;;;;;;34.43;17.57;;;;;;;8.51;100.00;99060.23;125357;1098;104067;-79
2023/12/14 06:46:37;;;;;;;34.63;18.50;;;;;;;8.53;100.00;99062.04;126131;1098;104272;-83
2023/12/14 06:49:14;;;;;;;35.13;18.37;;;;;;;8.55;100.00;99046.38;125373;1100;104085;-85
2023/12/14 06:52:21;;;;;;;35.13;19.00;;;;;;;8.58;100.00;99039.47;126355;1098;102051;-83
2023/12/14 06:54:54;;;;;;;34.00;18.00;;;;;;;8.61;100.00;99055.23;125389;1099;101956;-84
2023/12/14 06:57:32;;;;;;;38.30;19.03;;;;;;;8.64;100.00;99055.28;125348;1102;104307;-83
2023/12/14 07:00:16;;;;;;;33.87;18.57;;;;;;;8.67;100.00;99043.15;126370;1098;102096;-82
2023/12/14 07:02:55;;;;;;;34.53;18.10;;;;;;;8.71;100.00;99052.80;125795;1099;104224;-81
2023/12/14 07:05:27;;;;;;;30.90;16.17;;;;;;;8.76;100.00;99051.17;125553;1099;101888;-86
2023/12/14 07:08:03;;;;;;;32.53;17.20;;;;;;;8.79;100.00;99046.01;125348;1103;104172;-81
2023/12/14 07:10:38;;;;;;;32.83;17.27;;;;;;;8.78;100.00;99052.08;125224;1102;101936;-81
2023/12/14 07:13:16;;;;;;;28.60;15.77;;;;;;;8.74;100.00;99058.09;125951;1098;104213;-80
2023/12/14 07:15:48;;;;;;;28.67;15.87;;;;;;;8.71;100.00;99064.16;124576;1101;104303;-82
2023/12/14 07:18:22;;;;;;;32.07;15.17;;;;;;;8.71;100.00;99079.86;124889;1099;101871;-80
2023/12/14 07:20:55;;;;;;;29.37;14.77;;;;;;;8.70;100.00;99082.44;124798;1102;104331;-80
2023/12/14 07:23:27;;;;;;;30.13;15.70;;;;;;;8.69;100.00;99070.20;124676;1099;104181;-78
2023/12/14 07:26:03;;;;;;;29.37;14.67;;;;;;;8.69;100.00;99070.20;124743;1102;104213;-81
2023/12/14 07:28:36;;;;;;;29.17;14.60;;;;;;;8.72;100.00;99065.91;126061;1099;102179;-79
2023/12/14 07:31:10;;;;;;;30.63;14.67;;;;;;;8.76;100.00;99069.48;124665;1100;104281;-75
2023/12/14 07:33:43;;;;;;;28.63;15.27;;;;;;;8.79;100.00;99069.55;124695;1100;104326;-78
2023/12/14 07:36:17;;;;;;;28.37;13.83;;;;;;;8.82;100.00;99069.61;124830;1102;104179;-80
2023/12/14 07:38:49;;;;;;;28.30;14.97;;;;;;;8.84;100.00;99070.51;125954;1099;101807;-80
2023/12/14 07:41:29;;;;;;;28.40;14.33;;;;;;;8.89;100.00;99083.68;124794;1102;101875;-83
2023/12/14 07:44:16;;;;;;;26.80;14.00;;;;;;;8.93;100.00;99068.08;125366;1102;101812;-82
2023/12/14 07:46:55;;;;;;;30.23;14.60;;;;;;;8.96;100.00;99082.92;125246;1102;118198;-80
2023/12/14 07:49:37;;;;;;;25.67;12.93;;;;;;;8.98;100.00;99076.88;125297;1099;104214;-83
2023/12/14 07:52:28;;;;;;;28.87;14.30;;;;;;;9.02;100.00;99076.95;125952;1098;101700;-81
2023/12/14 07:55:03;;;;;;;26.57;13.53;;;;;;;9.06;100.00;99078.78;126010;1099;104139;-78
2023/12/14 07:57:44;;;;;;;30.23;14.03;;;;;;;9.07;100.00;99096.22;125864;1098;104182;-81
2023/12/14 08:00:25;;;;;;;29.47;13.37;;;;;;;9.09;100.00;99099.77;125460;1099;103098;-81
2023/12/14 08:03:01;;;;;;;25.77;13.17;;;;;;;9.13;100.00;99098.95;125476;1099;101962;-79
2023/12/14 08:05:46;;;;;;;26.65;13.30;;;;;;;9.17;100.00;99106.02;126035;1101;104162;-78
2023/12/14 08:08:20;;;;;;;25.20;13.07;;;;;;;9.20;100.00;99113.06;126288;1100;104083;-80
2023/12/14 08:10:55;;;;;;;25.70;13.83;;;;;;;9.18;100.00;99110.41;126043;1100;101998;-82
2023/12/14 08:13:44;;;;;;;26.13;13.40;;;;;;;9.17;100.00;99119.98;125371;1102;102242;-87
2023/12/14 08:16:36;;;;;;;26.30;12.83;;;;;;;9.21;100.00;99109.56;125403;1099;104198;-81
2023/12/14 08:19:37;;;;;;;;;;;;;;;;;;;;;
2023/12/14 08:22:44;;;;;;;26.53;12.87;;;;;;;9.24;100.00;99100.06;125597;1102;101924;-80
2023/12/14 08:25:21;;;;;;;27.13;13.23;;;;;;;9.23;100.00;99113.98;126041;1099;104182;-79
2023/12/14 08:28:07;;;;;;;26.23;12.67;;;;;;;9.21;100.00;99110.47;126488;1102;117832;-79
2023/12/14 08:30:58;;;;;;;;;;;;;;;9.20;100.00;99113.94;127440;1098;101795;-82
2023/12/14 08:37:09;;;;;;;24.97;12.97;;;;;;;9.13;100.00;99106.80;125270;1102;104271;-82
2023/12/14 08:40:04;;;;;;;25.53;13.43;;;;;;;9.08;100.00;99103.23;125960;1102;101979;-77
2023/12/14 08:42:44;;;;;;;25.87;12.97;;;;;;;9.10;100.00;99096.28;124834;1102;102192;-76
2023/12/14 08:45:49;;;;;;;;;;;;;;;;;;;;;
2023/12/14 08:48:43;;;;;;;24.90;12.73;;;;;;;9.17;100.00;99078.11;124784;1102;104217;-78
2023/12/14 08:51:21;;;;;;;26.57;13.30;;;;;;;9.19;100.00;99085.98;125091;1101;102463;-78
2023/12/14 08:54:09;;;;;;;26.57;13.53;;;;;;;9.16;100.00;99062.38;125769;1099;104211;-82
2023/12/14 08:56:48;;;;;;;26.50;13.07;;;;;;;9.16;100.00;99059.76;126480;1099;102104;-82
2023/12/14 08:59:40;;;;;;;;;;;;;;;;;;;;;
2023/12/14 09:02:17;;;;;;;25.20;12.57;;;;;;;9.18;100.00;99065.92;125441;1100;104214;-82
2023/12/14 09:07:59;;;;;;;25.67;13.73;;;;;;;9.27;100.00;99102.73;126231;1098;101812;-81
2023/12/14 09:10:42;;;;;;;25.70;13.17;;;;;;;9.31;100.00;99114.14;125516;1099;102018;-80
2023/12/14 09:13:18;;;;;;;29.27;13.53;;;;;;;9.35;100.00;99129.05;125312;1102;104269;-79
2023/12/14 09:15:57;;;;;;;26.12;13.48;;;;;;;9.41;100.00;99131.79;124687;1099;104212;-76
2023/12/14 09:18:46;;;;;;;26.03;13.40;;;;;;;9.44;100.00;99137.08;124660;1099;104252;-76
2023/12/14 09:21:32;;;;;;;23.80;12.60;;;;;;;9.45;100.00;99154.53;124654;1102;101893;-78
2023/12/14 09:24:04;;;;;;;23.67;11.57;;;;;;;9.47;100.00;99151.95;125817;1099;102055;-79
2023/12/14 09:26:35;;;;;;;23.63;12.27;;;;;;;9.50;100.00;99138.91;125985;1099;102027;-79
2023/12/14 09:29:10;;;;;;;23.50;12.40;;;;;;;9.53;100.00;99154.67;125417;1102;101981;-78
2023/12/14 09:31:43;;;;;;;24.23;12.17;;;;;;;9.58;100.00;99152.14;124745;1099;110177;-77
2023/12/14 09:34:15;;;;;;;24.43;11.78;;;;;;;9.61;100.00;99136.48;124637;1099;102075;-77
2023/12/14 09:36:48;;;;;;;24.90;12.43;;;;;;;9.66;100.00;99150.53;125502;1099;104203;-77
2023/12/14 09:39:23;;;;;;;23.97;12.33;;;;;;;9.74;100.00;99162.05;124909;1099;104175;-77
2023/12/14 09:42:05;;;;;;;25.40;12.67;;;;;;;9.84;100.00;99156.09;124659;1099;102312;-77
2023/12/14 09:44:40;;;;;;;26.37;12.60;;;;;;;9.94;100.00;99145.77;125354;1099;104210;-77
2023/12/14 09:47:12;;;;;;;24.17;11.53;;;;;;;10.02;100.00;99145.05;125879;1099;101910;-77
2023/12/14 09:49:44;;;;;;;21.60;11.20;;;;;;;10.08;100.00;99142.53;125984;1098;104431;-78
2023/12/14 09:52:17;;;;;;;22.73;11.87;;;;;;;10.14;100.00;99149.59;125323;1098;107067;-76
2023/12/14 09:54:51;;;;;;;22.17;11.60;;;;;;;10.17;100.00;99148.77;125443;1099;101957;-75
2023/12/14 09:57:29;;;;;;;22.15;11.05;;;;;;;10.18;100.00;99150.55;124691;1102;104235;-77
2023/12/14 10:00:10;;;;;;;23.03;11.80;;;;;;;10.24;100.00;99155.88;124638;1099;104246;-77
2023/12/14 10:02:43;;;;;;;25.70;12.47;;;;;;;10.30;100.00;99161.22;124280;1099;118207;-75
2023/12/14 10:05:14;;;;;;;23.93;12.07;;;;;;;10.40;100.00;99165.76;124159;1099;101995;-78
2023/12/14 10:07:47;;;;;;;24.70;12.20;;;;;;;10.46;100.00;99172.84;124428;1099;104172;-77
2023/12/14 10:10:28;;;;;;;23.30;11.97;;;;;;;10.48;100.00;99160.63;124256;1099;102035;-79
2023/12/14 10:13:05;;;;;;;24.23;11.80;;;;;;;10.55;100.00;99158.97;124592;1102;104213;-77
2023/12/14 10:15:52;;;;;;;21.80;11.80;;;;;;;10.61;100.00;99162.58;125656;1099;102073;-80
2023/12/14 10:18:26;;;;;;;24.73;12.53;;;;;;;10.67;100.00;99160.89;125528;1098;104098;-79
2023/12/14 10:20:58;;;;;;;22.67;11.93;;;;;;;10.70;100.00;99161.80;126505;1098;101793;-78
2023/12/14 10:23:38;;;;;;;25.17;12.27;;;;;;;10.76;100.00;99161.89;125441;1099;109560;-78
2023/12/14 10:26:12;;;;;;;23.93;12.23;;;;;;;10.81;100.00;99159.33;124644;1099;104166;-77
2023/12/14 10:28:54;;;;;;;22.93;11.83;;;;;;;10.86;100.00;99156.77;124449;1099;104242;-76
2023/12/14 10:31:37;;;;;;;25.07;12.57;;;;;;;10.87;100.00;99164.66;124526;1099;102237;-76
2023/12/14 10:34:30;;;;;;;23.33;12.00;;;;;;;10.84;100.00;99180.36;124189;1099;104197;-74
2023/12/14 10:37:04;;;;;;;24.33;12.63;;;;;;;10.87;100.00;99175.16;124205;1099;104241;-75
2023/12/14 10:39:36;;;;;;;24.93;11.97;;;;;;;10.87;100.00;99177.78;124236;1099;104271;-77
2023/12/14 10:42:11;;;;;;;24.50;12.70;;;;;;;10.89;100.00;99172.55;125048;1098;104396;-76
2023/12/14 10:44:43;;;;;;;21.90;11.60;;;;;;;10.92;100.00;99167.34;124241;1099;104629;-73
2023/12/14 10:47:16;;;;;;;24.57;12.10;;;;;;;10.94;100.00;99160.39;124396;1099;101858;-75
2023/12/14 10:49:53;;;;;;;22.90;11.67;;;;;;;10.97;100.00;99148.18;124288;1099;102039;-74
2023/12/14 10:52:26;;;;;;;22.17;12.37;;;;;;;11.01;100.00;99141.22;124249;1099;104239;-74
2023/12/14 10:55:03;;;;;;;24.30;12.93;;;;;;;11.05;100.00;99158.78;124206;1099;104214;-75
2023/12/14 10:57:34;;;;;;;25.00;13.03;;;;;;;11.08;100.00;99164.06;124284;1099;104708;-77
2023/12/14 11:00:12;;;;;;;25.47;13.03;;;;;;;11.08;100.00;99177.19;124137;1099;102783;-76
2023/12/14 11:02:52;;;;;;;25.43;14.00;;;;;;;11.07;100.00;99182.42;124253;1102;104243;-77
2023/12/14 11:05:30;;;;;;;24.17;13.43;;;;;;;11.10;100.00;99188.58;124459;1099;102363;-79
2023/12/14 11:08:09;;;;;;;24.13;12.23;;;;;;;11.11;100.00;99206.11;124346;1102;102073;-77
2023/12/14 11:10:55;;;;;;;28.80;13.70;;;;;;;11.06;100.00;99209.52;124185;1102;102936;-75
2023/12/14 11:13:35;;;;;;;25.87;13.87;;;;;;;11.08;100.00;99211.31;124493;1099;104163;-80
2023/12/14 11:16:17;;;;;;;25.30;13.37;;;;;;;11.14;100.00;99219.27;124635;1099;104210;-78
2023/12/14 11:19:36;;;;;;;25.33;12.80;;;;;;;11.15;100.00;99207.02;124275;1099;103542;-78
2023/12/14 11:22:28;;;;;;;24.67;12.40;;;;;;;11.20;100.00;99201.82;124266;1099;101886;-76
2023/12/14 11:25:05;;;;;;;24.27;12.80;;;;;;;11.25;100.00;99202.75;124343;1102;107122;-77
2023/12/14 11:27:45;;;;;;;23.87;11.77;;;;;;;11.26;100.00;99212.41;124424;1099;104162;-77
2023/12/14 11:30:34;;;;;;;23.20;11.97;;;;;;;11.23;100.00;99209.73;124331;1099;104175;-75
2023/12/14 11:33:11;;;;;;;23.13;11.80;;;;;;;11.24;100.00;99196.62;125066;1099;101887;-76
2023/12/14 11:35:46;;;;;;;22.07;11.33;;;;;;;11.22;100.00;99203.62;124258;1099;104278;-75
2023/12/14 11:38:20;;;;;;;22.37;12.07;;;;;;;11.15;100.00;99201.77;124172;1099;104231;-76
2023/12/14 11:40:52;;;;;;;22.53;11.73;;;;;;;11.13;100.00;99204.38;124266;1099;104696;-76
2023/12/14 11:43:29;;;;;;;23.27;11.83;;;;;;;11.12;100.00;99196.48;124298;1102;104329;-77
2023/12/14 11:46:00;;;;;;;22.90;11.97;;;;;;;11.05;100.00;99203.41;124316;1100;104344;-78